Time;durP1;ratioP1;P1;durP2;ratioP2;P2;SDS_P1;SDS_P2;PMS_P1;PMS_P2;Temp;Humidity;BMP_temperature;BMP_pressure;BME280_temperature;BME280_humidity;BME280_pressure;Samples;Min_cycle;Max_cycle;Signal;HPM_P1;HPM_P2
2023/04/18 00:02:25;;;;;;;12.63;9.38;;;;;;;;;;5072186;28;20705;-64
2023/04/18 00:04:51;;;;;;;13.65;9.93;;;;;;;;;;5072042;28;20063;-64
2023/04/18 00:07:16;;;;;;;13.43;9.70;;;;;;;;;;5070275;28;20163;-64
2023/04/18 00:09:42;;;;;;;17.15;10.05;;;;;;;;;;5068117;28;20606;-64
2023/04/18 00:12:08;;;;;;;17.73;10.40;;;;;;;;;;5021039;28;20039;-64
2023/04/18 00:14:34;;;;;;;17.00;10.05;;;;;;;;;;5060427;28;21275;-65
2023/04/18 00:17:01;;;;;;;12.55;10.48;;;;;;;;;;5071524;28;20040;-64
2023/04/18 00:19:26;;;;;;;15.55;10.55;;;;;;;;;;5071170;28;20119;-64
2023/04/18 00:21:52;;;;;;;16.45;11.00;;;;;;;;;;5073581;28;20091;-64
2023/04/18 00:24:18;;;;;;;16.77;11.25;;;;;;;;;;5072071;28;20024;-64
2023/04/18 00:26:43;;;;;;;15.85;10.20;;;;;;;;;;5071866;28;20023;-64
2023/04/18 00:29:08;;;;;;;15.55;10.73;;;;;;;;;;5072606;28;20382;-63
2023/04/18 00:31:33;;;;;;;12.80;10.15;;;;;;;;;;5072302;28;20044;-63
2023/04/18 00:33:59;;;;;;;13.45;9.55;;;;;;;;;;5070362;28;20036;-63
2023/04/18 00:36:24;;;;;;;14.63;10.70;;;;;;;;;;5071350;28;20050;-63
2023/04/18 00:38:50;;;;;;;13.57;10.15;;;;;;;;;;5072417;28;20372;-63
2023/04/18 00:41:15;;;;;;;14.93;10.63;;;;;;;;;;5069964;28;20067;-64
2023/04/18 00:43:40;;;;;;;17.10;11.93;;;;;;;;;;5073308;28;20036;-64
2023/04/18 00:46:05;;;;;;;14.27;10.23;;;;;;;;;;5075021;28;20458;-64
2023/04/18 00:48:31;;;;;;;15.52;11.32;;;;;;;;;;5072199;28;20039;-64
2023/04/18 00:50:56;;;;;;;15.07;9.65;;;;;;;;;;5072783;28;20440;-63
2023/04/18 00:53:22;;;;;;;17.85;10.52;;;;;;;;;;5070041;28;20024;-63
2023/04/18 00:55:47;;;;;;;14.13;10.45;;;;;;;;;;5067465;28;20028;-64
2023/04/18 00:58:13;;;;;;;12.98;9.98;;;;;;;;;;5072638;28;20052;-65
2023/04/18 01:00:38;;;;;;;16.00;10.45;;;;;;;;;;5069328;28;20484;-63
2023/04/18 01:03:03;;;;;;;19.45;10.85;;;;;;;;;;5068766;28;20035;-63
2023/04/18 01:05:29;;;;;;;15.20;9.48;;;;;;;;;;5069500;28;20040;-63
2023/04/18 01:07:59;;;;;;;15.73;10.23;;;;;;;;;;5069255;28;20574;-63
2023/04/18 01:10:25;;;;;;;15.32;10.32;;;;;;;;;;5070607;28;20486;-65
2023/04/18 01:13:08;;;;;;;14.25;10.25;;;;;;;;;;5051656;28;20127;-64
2023/04/18 01:15:33;;;;;;;11.77;9.43;;;;;;;;;;5067674;28;20036;-64
2023/04/18 01:17:58;;;;;;;20.70;11.60;;;;;;;;;;5051469;28;20035;-64
2023/04/18 01:20:25;;;;;;;14.55;10.20;;;;;;;;;;5071297;28;20031;-65
2023/04/18 01:22:50;;;;;;;14.75;9.93;;;;;;;;;;5072002;28;20052;-64
2023/04/18 01:25:16;;;;;;;14.65;11.40;;;;;;;;;;5070102;28;20044;-65
2023/04/18 01:27:41;;;;;;;16.20;12.15;;;;;;;;;;5069079;28;20123;-66
2023/04/18 01:30:06;;;;;;;10.70;7.80;;;;;;;;;;5070749;28;20024;-64
2023/04/18 01:32:32;;;;;;;14.38;11.65;;;;;;;;;;5070303;28;21299;-64
2023/04/18 01:34:57;;;;;;;15.77;11.63;;;;;;;;;;5070078;28;20063;-64
2023/04/18 01:37:22;;;;;;;16.98;10.98;;;;;;;;;;5069643;28;20050;-64
2023/04/18 01:39:48;;;;;;;14.18;11.85;;;;;;;;;;5072318;28;20056;-64
2023/04/18 01:42:13;;;;;;;16.42;10.68;;;;;;;;;;5069824;28;20032;-65
2023/04/18 01:44:38;;;;;;;16.60;10.18;;;;;;;;;;5072760;28;20493;-64
2023/04/18 01:47:03;;;;;;;15.10;10.50;;;;;;;;;;5072037;28;20394;-64
2023/04/18 01:49:29;;;;;;;12.25;9.75;;;;;;;;;;5069353;28;20046;-64
2023/04/18 01:51:54;;;;;;;17.58;9.63;;;;;;;;;;5070756;28;20032;-64
2023/04/18 01:54:19;;;;;;;11.73;8.77;;;;;;;;;;5071083;28;20368;-64
2023/04/18 01:56:44;;;;;;;14.57;9.35;;;;;;;;;;5070178;28;20040;-64
2023/04/18 01:59:10;;;;;;;15.43;10.05;;;;;;;;;;5071082;28;20032;-64
2023/04/18 02:01:35;;;;;;;16.85;10.18;;;;;;;;;;5069984;28;20031;-64
2023/04/18 02:04:00;;;;;;;15.70;9.70;;;;;;;;;;5068984;28;20051;-64
2023/04/18 02:06:25;;;;;;;11.32;8.82;;;;;;;;;;5069603;28;20032;-64
2023/04/18 02:08:51;;;;;;;13.43;9.27;;;;;;;;;;5068967;28;20032;-64
2023/04/18 02:11:16;;;;;;;13.18;9.57;;;;;;;;;;5070681;28;20462;-64
2023/04/18 02:13:42;;;;;;;13.90;9.98;;;;;;;;;;5069311;28;20108;-65
2023/04/18 02:16:13;;;;;;;10.23;8.13;;;;;;;;;;5073880;28;20511;-64
2023/04/18 02:18:40;;;;;;;15.57;10.05;;;;;;;;;;5071598;28;20031;-65
2023/04/18 02:21:08;;;;;;;14.32;9.68;;;;;;;;;;5073143;28;20490;-64
2023/04/18 02:23:33;;;;;;;12.60;9.48;;;;;;;;;;5068698;28;20044;-64
2023/04/18 02:25:58;;;;;;;13.55;9.98;;;;;;;;;;5066907;28;20360;-64
2023/04/18 02:28:24;;;;;;;19.65;9.48;;;;;;;;;;5069311;28;20466;-64
2023/04/18 02:30:49;;;;;;;15.93;9.70;;;;;;;;;;5071164;28;20034;-64
2023/04/18 02:33:14;;;;;;;13.77;9.32;;;;;;;;;;5066301;28;20188;-64
2023/04/18 02:35:39;;;;;;;13.75;10.10;;;;;;;;;;5069819;28;20565;-64
2023/04/18 02:38:05;;;;;;;17.65;10.35;;;;;;;;;;5068589;28;20036;-64
2023/04/18 02:40:30;;;;;;;11.77;9.00;;;;;;;;;;5069424;28;21155;-64
2023/04/18 02:42:55;;;;;;;19.65;9.20;;;;;;;;;;5068576;28;20040;-65
2023/04/18 02:45:21;;;;;;;14.68;9.82;;;;;;;;;;5072344;28;20035;-64
2023/04/18 02:47:46;;;;;;;13.38;8.90;;;;;;;;;;5070529;28;20036;-64
2023/04/18 02:50:11;;;;;;;16.40;9.82;;;;;;;;;;5070424;28;20054;-65
2023/04/18 02:52:36;;;;;;;14.98;9.00;;;;;;;;;;5068433;28;20036;-64
2023/04/18 02:55:02;;;;;;;19.80;9.43;;;;;;;;;;5071057;28;20123;-64
2023/04/18 02:57:27;;;;;;;13.38;9.40;;;;;;;;;;5068730;28;20028;-64
2023/04/18 02:59:52;;;;;;;11.35;8.75;;;;;;;;;;5068272;28;20032;-64
2023/04/18 03:02:19;;;;;;;12.35;8.68;;;;;;;;;;5068939;28;20093;-64
2023/04/18 03:04:45;;;;;;;14.88;10.00;;;;;;;;;;5066958;28;20088;-64
2023/04/18 03:07:10;;;;;;;14.88;9.52;;;;;;;;;;5069111;28;20432;-65
2023/04/18 03:09:35;;;;;;;13.00;9.98;;;;;;;;;;5069866;28;20048;-64
2023/04/18 03:12:01;;;;;;;12.65;9.32;;;;;;;;;;5070833;28;20047;-64
2023/04/18 03:14:26;;;;;;;17.50;10.20;;;;;;;;;;5071684;28;20036;-64
2023/04/18 03:16:51;;;;;;;20.85;10.73;;;;;;;;;;5069706;28;20052;-64
2023/04/18 03:19:16;;;;;;;13.82;10.13;;;;;;;;;;5068427;28;20062;-64
2023/04/18 03:21:42;;;;;;;16.50;9.85;;;;;;;;;;5071431;28;20432;-64
2023/04/18 03:24:07;;;;;;;16.20;9.98;;;;;;;;;;5070099;28;20093;-64
2023/04/18 03:26:32;;;;;;;15.32;9.55;;;;;;;;;;5067825;28;20046;-63
2023/04/18 03:28:58;;;;;;;14.73;11.02;;;;;;;;;;5070221;28;20532;-64
2023/04/18 03:31:23;;;;;;;14.25;10.40;;;;;;;;;;5067612;28;20061;-64
2023/04/18 03:33:50;;;;;;;18.35;11.82;;;;;;;;;;5069947;28;20042;-64
2023/04/18 03:36:20;;;;;;;17.23;11.52;;;;;;;;;;5069321;28;20127;-64
2023/04/18 03:38:45;;;;;;;17.63;10.57;;;;;;;;;;5051038;28;20145;-64
2023/04/18 03:41:10;;;;;;;15.82;10.20;;;;;;;;;;5073361;28;20043;-67
2023/04/18 03:43:36;;;;;;;16.25;10.55;;;;;;;;;;5072388;28;20108;-64
2023/04/18 03:46:01;;;;;;;13.98;11.00;;;;;;;;;;5072773;28;20051;-64
2023/04/18 03:48:27;;;;;;;13.80;10.50;;;;;;;;;;5070151;28;20173;-64
2023/04/18 03:50:53;;;;;;;16.90;11.02;;;;;;;;;;5073243;28;20664;-64
2023/04/18 03:53:18;;;;;;;16.17;10.60;;;;;;;;;;5071626;28;20034;-64
2023/04/18 03:55:43;;;;;;;17.25;11.27;;;;;;;;;;5040196;28;20035;-64
2023/04/18 03:58:08;;;;;;;17.40;10.98;;;;;;;;;;5073559;28;20032;-64
2023/04/18 04:00:34;;;;;;;18.27;11.00;;;;;;;;;;5070766;28;20180;-64
2023/04/18 04:02:59;;;;;;;13.73;9.75;;;;;;;;;;5072506;28;20028;-65
2023/04/18 04:05:24;;;;;;;17.60;10.82;;;;;;;;;;5074414;28;20047;-65
2023/04/18 04:07:50;;;;;;;21.75;11.27;;;;;;;;;;5073278;28;20445;-64
2023/04/18 04:10:15;;;;;;;18.05;11.70;;;;;;;;;;5070159;28;20077;-64
2023/04/18 04:12:40;;;;;;;15.10;10.20;;;;;;;;;;5071749;28;20032;-65
2023/04/18 04:15:06;;;;;;;13.02;10.32;;;;;;;;;;5071096;28;20804;-64
2023/04/18 04:17:31;;;;;;;16.38;11.10;;;;;;;;;;5070795;28;20046;-64
2023/04/18 04:19:56;;;;;;;15.10;10.18;;;;;;;;;;5071014;28;20036;-64
2023/04/18 04:22:22;;;;;;;12.27;10.48;;;;;;;;;;5072296;28;20036;-65
2023/04/18 04:24:47;;;;;;;16.45;11.35;;;;;;;;;;5072324;28;20040;-64
2023/04/18 04:27:12;;;;;;;20.77;10.85;;;;;;;;;;5072935;28;20046;-65
2023/04/18 04:29:38;;;;;;;14.35;9.75;;;;;;;;;;5072838;28;20057;-64
2023/04/18 04:32:04;;;;;;;16.17;10.57;;;;;;;;;;5075368;28;20075;-64
2023/04/18 04:34:30;;;;;;;16.25;11.18;;;;;;;;;;5071610;28;20016;-64
2023/04/18 04:36:55;;;;;;;16.20;10.93;;;;;;;;;;5072064;28;20367;-64
2023/04/18 04:39:21;;;;;;;17.95;11.48;;;;;;;;;;5032589;28;20118;-64
2023/04/18 04:41:46;;;;;;;18.02;11.13;;;;;;;;;;5031561;28;20872;-64
2023/04/18 04:44:11;;;;;;;15.90;10.73;;;;;;;;;;5032834;28;20162;-65
2023/04/18 04:46:39;;;;;;;18.20;11.65;;;;;;;;;;5031104;28;21433;-64
2023/04/18 04:49:04;;;;;;;17.13;11.13;;;;;;;;;;5030925;28;20086;-64
2023/04/18 04:51:30;;;;;;;16.00;11.85;;;;;;;;;;5032830;28;21115;-64
2023/04/18 04:53:55;;;;;;;16.92;11.88;;;;;;;;;;5034863;28;21044;-64
2023/04/18 04:56:21;;;;;;;18.85;12.38;;;;;;;;;;5034445;28;20025;-65
2023/04/18 04:58:47;;;;;;;16.95;9.93;;;;;;;;;;5036693;28;20801;-65
2023/04/18 05:01:12;;;;;;;15.77;12.40;;;;;;;;;;5037095;28;20067;-64
2023/04/18 05:03:37;;;;;;;14.02;10.10;;;;;;;;;;5034011;28;20113;-64
2023/04/18 05:06:03;;;;;;;15.35;10.52;;;;;;;;;;5041699;28;20036;-64
2023/04/18 05:08:28;;;;;;;13.70;11.45;;;;;;;;;;5070868;28;20032;-64
2023/04/18 05:10:54;;;;;;;16.08;11.68;;;;;;;;;;5069591;28;20044;-64
2023/04/18 05:13:19;;;;;;;25.08;11.73;;;;;;;;;;5069285;28;20061;-64
2023/04/18 05:15:44;;;;;;;13.05;9.80;;;;;;;;;;5070450;28;20047;-64
2023/04/18 05:18:10;;;;;;;16.02;11.07;;;;;;;;;;5072528;28;20028;-64
2023/04/18 05:20:35;;;;;;;15.35;10.75;;;;;;;;;;5071562;28;20050;-64
2023/04/18 05:23:00;;;;;;;19.35;11.27;;;;;;;;;;5071034;28;20020;-64
2023/04/18 05:25:25;;;;;;;15.90;10.95;;;;;;;;;;5073208;28;20115;-64
2023/04/18 05:27:51;;;;;;;13.35;10.68;;;;;;;;;;5069999;28;20020;-64
2023/04/18 05:30:16;;;;;;;17.75;10.35;;;;;;;;;;5072820;28;20036;-64
2023/04/18 05:32:42;;;;;;;21.52;11.70;;;;;;;;;;5069399;28;20060;-65
2023/04/18 05:35:07;;;;;;;18.35;11.60;;;;;;;;;;5072395;28;20020;-63
2023/04/18 05:37:32;;;;;;;23.00;9.88;;;;;;;;;;5069361;28;20150;-63
2023/04/18 05:39:58;;;;;;;12.98;10.50;;;;;;;;;;5070118;28;20028;-64
2023/04/18 05:42:23;;;;;;;14.82;10.95;;;;;;;;;;5069235;28;20047;-65
2023/04/18 05:44:48;;;;;;;16.88;11.75;;;;;;;;;;5072362;28;20122;-63
2023/04/18 05:47:14;;;;;;;13.77;9.38;;;;;;;;;;5061708;28;20035;-64
2023/04/18 05:49:39;;;;;;;16.42;10.15;;;;;;;;;;5033091;28;20142;-64
2023/04/18 05:52:05;;;;;;;14.75;10.80;;;;;;;;;;5033764;28;20031;-64
2023/04/18 05:54:30;;;;;;;13.77;10.02;;;;;;;;;;5032974;28;20031;-64
2023/04/18 05:56:56;;;;;;;14.63;10.90;;;;;;;;;;5033177;28;20904;-64
2023/04/18 05:59:21;;;;;;;15.88;11.38;;;;;;;;;;5033150;28;20032;-64
2023/04/18 06:01:48;;;;;;;15.43;9.75;;;;;;;;;;5043452;28;20027;-63
2023/04/18 06:04:13;;;;;;;12.48;9.40;;;;;;;;;;5033823;28;20135;-65
2023/04/18 06:06:38;;;;;;;16.63;9.80;;;;;;;;;;5033176;28;20036;-64
2023/04/18 06:09:04;;;;;;;11.68;9.57;;;;;;;;;;5030002;28;21101;-64
2023/04/18 06:11:32;;;;;;;12.73;9.15;;;;;;;;;;5022727;28;20554;-62
2023/04/18 06:13:57;;;;;;;15.50;10.02;;;;;;;;;;4979701;28;20118;-64
2023/04/18 06:16:22;;;;;;;13.43;9.23;;;;;;;;;;4997101;28;20533;-64
2023/04/18 06:18:48;;;;;;;12.52;8.40;;;;;;;;;;5070201;28;20031;-64
2023/04/18 06:21:13;;;;;;;12.25;8.85;;;;;;;;;;5073889;28;20036;-64
2023/04/18 06:23:38;;;;;;;9.98;8.73;;;;;;;;;;5070500;28;20040;-64
2023/04/18 06:26:03;;;;;;;11.23;8.93;;;;;;;;;;5072254;28;20174;-64
2023/04/18 06:28:29;;;;;;;12.93;9.27;;;;;;;;;;5085023;28;20028;-64
2023/04/18 06:30:54;;;;;;;14.63;9.10;;;;;;;;;;5083265;28;20038;-64
2023/04/18 06:33:20;;;;;;;12.80;9.90;;;;;;;;;;5086076;28;21422;-64
2023/04/18 06:35:45;;;;;;;15.63;10.43;;;;;;;;;;5079865;28;20028;-63
2023/04/18 06:38:10;;;;;;;16.33;9.45;;;;;;;;;;5082658;28;20143;-64
2023/04/18 06:40:36;;;;;;;12.70;8.20;;;;;;;;;;5054825;28;20168;-64
2023/04/18 06:43:01;;;;;;;11.40;8.75;;;;;;;;;;5044168;28;20076;-63
2023/04/18 06:45:26;;;;;;;11.73;9.40;;;;;;;;;;5061120;28;20024;-63
2023/04/18 06:47:52;;;;;;;12.77;9.35;;;;;;;;;;5083929;28;20058;-63
2023/04/18 06:50:17;;;;;;;13.63;9.57;;;;;;;;;;5080119;28;20479;-64
2023/04/18 06:52:45;;;;;;;12.27;9.38;;;;;;;;;;5085130;28;20025;-63
2023/04/18 06:55:12;;;;;;;13.65;9.30;;;;;;;;;;5080892;28;20421;-63
2023/04/18 06:57:37;;;;;;;11.80;9.38;;;;;;;;;;5087034;28;20032;-63
2023/04/18 07:00:03;;;;;;;13.80;9.85;;;;;;;;;;5084774;28;20070;-63
2023/04/18 07:02:29;;;;;;;15.50;10.02;;;;;;;;;;5084011;28;20024;-64
2023/04/18 07:04:54;;;;;;;12.57;9.20;;;;;;;;;;5085181;28;20029;-64
2023/04/18 07:07:20;;;;;;;11.00;8.48;;;;;;;;;;5087018;28;20080;-64
2023/04/18 07:09:45;;;;;;;13.32;9.50;;;;;;;;;;5084592;28;20028;-64
2023/04/18 07:12:10;;;;;;;15.27;10.25;;;;;;;;;;5087426;28;20106;-64
2023/04/18 07:14:35;;;;;;;14.57;11.07;;;;;;;;;;5079717;28;20036;-64
2023/04/18 07:17:00;;;;;;;12.27;9.45;;;;;;;;;;5086131;28;20023;-64
2023/04/18 07:19:26;;;;;;;13.15;9.75;;;;;;;;;;5083058;28;20505;-63
2023/04/18 07:21:51;;;;;;;13.00;10.13;;;;;;;;;;5086337;28;20028;-64
2023/04/18 07:24:16;;;;;;;13.98;10.13;;;;;;;;;;5089547;28;20042;-64
2023/04/18 07:26:42;;;;;;;15.48;9.77;;;;;;;;;;5090415;28;20062;-64
2023/04/18 07:29:07;;;;;;;15.18;9.70;;;;;;;;;;5092015;28;20024;-64
2023/04/18 07:31:32;;;;;;;17.33;10.77;;;;;;;;;;5089090;28;20063;-64
2023/04/18 07:33:58;;;;;;;11.60;9.05;;;;;;;;;;5085584;28;20031;-63
2023/04/18 07:36:23;;;;;;;13.00;10.68;;;;;;;;;;5089398;28;20028;-63
2023/04/18 07:38:48;;;;;;;17.65;11.18;;;;;;;;;;5085197;28;20677;-64
2023/04/18 07:41:14;;;;;;;16.90;10.70;;;;;;;;;;5081063;28;20103;-64
2023/04/18 07:43:39;;;;;;;17.20;10.52;;;;;;;;;;5089258;28;20032;-64
2023/04/18 07:46:05;;;;;;;12.60;10.13;;;;;;;;;;5084090;28;20593;-64
2023/04/18 07:48:30;;;;;;;14.82;10.05;;;;;;;;;;5086059;28;20031;-63
2023/04/18 07:50:55;;;;;;;12.90;10.23;;;;;;;;;;5081299;28;20059;-64
2023/04/18 07:53:20;;;;;;;15.90;10.45;;;;;;;;;;5083995;28;20521;-64
2023/04/18 07:55:46;;;;;;;15.10;10.32;;;;;;;;;;5086962;28;20151;-64
2023/04/18 07:58:11;;;;;;;16.50;10.55;;;;;;;;;;5091031;28;20035;-64
2023/04/18 08:00:37;;;;;;;14.27;10.68;;;;;;;;;;5084670;28;20034;-64
2023/04/18 08:03:03;;;;;;;14.02;10.15;;;;;;;;;;5092077;28;20024;-64
2023/04/18 08:05:28;;;;;;;14.13;9.68;;;;;;;;;;5067938;28;20094;-63
2023/04/18 08:07:53;;;;;;;12.57;10.07;;;;;;;;;;5090870;28;20047;-64
2023/04/18 08:10:19;;;;;;;13.15;8.93;;;;;;;;;;5085227;28;20119;-65
2023/04/18 08:12:44;;;;;;;20.25;11.43;;;;;;;;;;5089397;28;20081;-64
2023/04/18 08:15:10;;;;;;;14.25;9.45;;;;;;;;;;5088260;28;20036;-62
2023/04/18 08:17:37;;;;;;;11.93;10.23;;;;;;;;;;5084619;28;20028;-63
2023/04/18 08:20:06;;;;;;;14.63;9.98;;;;;;;;;;5085909;28;20529;-63
2023/04/18 08:22:31;;;;;;;11.77;9.93;;;;;;;;;;5086229;28;20540;-64
2023/04/18 08:24:56;;;;;;;12.18;9.75;;;;;;;;;;5088179;28;20027;-63
2023/04/18 08:27:22;;;;;;;11.02;9.02;;;;;;;;;;5090568;28;20101;-64
2023/04/18 08:30:12;;;;;;;14.27;10.50;;;;;;;;;;5091235;28;20024;-63
2023/04/18 08:32:37;;;;;;;12.52;9.65;;;;;;;;;;5087365;28;20040;-64
2023/04/18 08:35:03;;;;;;;13.63;9.70;;;;;;;;;;5084660;28;20110;-64
2023/04/18 08:37:29;;;;;;;13.10;9.80;;;;;;;;;;5080733;28;20017;-64
2023/04/18 08:39:54;;;;;;;17.30;9.15;;;;;;;;;;5085156;28;20120;-63
2023/04/18 08:42:20;;;;;;;12.73;8.32;;;;;;;;;;5086029;28;20020;-63
2023/04/18 08:44:46;;;;;;;12.73;8.73;;;;;;;;;;5083297;28;20024;-64
2023/04/18 08:47:11;;;;;;;12.52;8.85;;;;;;;;;;5086356;28;20044;-63
2023/04/18 08:49:37;;;;;;;14.32;10.07;;;;;;;;;;5080112;28;20035;-64
2023/04/18 08:52:03;;;;;;;12.77;8.50;;;;;;;;;;5081680;28;20024;-64
2023/04/18 08:54:30;;;;;;;12.95;8.40;;;;;;;;;;5084227;28;20031;-64
2023/04/18 08:57:02;;;;;;;10.48;8.38;;;;;;;;;;5084863;28;20490;-64
2023/04/18 08:59:29;;;;;;;11.50;9.27;;;;;;;;;;5085010;28;20024;-64
2023/04/18 09:01:56;;;;;;;16.50;9.07;;;;;;;;;;5073120;28;20028;-63
2023/04/18 09:04:43;;;;;;;10.85;8.48;;;;;;;;;;5082404;28;20032;-64
2023/04/18 09:07:09;;;;;;;9.55;7.90;;;;;;;;;;5085743;28;20050;-63
2023/04/18 09:09:45;;;;;;;13.95;7.75;;;;;;;;;;5083670;28;20036;-63
2023/04/18 09:12:13;;;;;;;10.98;8.00;;;;;;;;;;5083740;28;20032;-63
2023/04/18 09:14:43;;;;;;;12.80;8.75;;;;;;;;;;5086540;28;20032;-64
2023/04/18 09:17:10;;;;;;;10.65;7.82;;;;;;;;;;5082484;28;20532;-64
2023/04/18 09:19:37;;;;;;;10.50;7.85;;;;;;;;;;5081621;28;20032;-62
2023/04/18 09:22:03;;;;;;;13.65;9.00;;;;;;;;;;5080181;28;20044;-64
2023/04/18 09:24:29;;;;;;;17.77;8.38;;;;;;;;;;5086678;28;20024;-63
2023/04/18 09:26:58;;;;;;;10.75;7.90;;;;;;;;;;5084709;28;20021;-63
2023/04/18 09:29:41;;;;;;;10.65;7.03;;;;;;;;;;5083103;28;20032;-63
2023/04/18 09:32:06;;;;;;;10.70;8.20;;;;;;;;;;5084129;28;20047;-63
2023/04/18 09:34:32;;;;;;;11.50;7.03;;;;;;;;;;5080788;28;20047;-64
2023/04/18 09:37:06;;;;;;;10.65;6.43;;;;;;;;;;5082485;28;20028;-64
2023/04/18 09:39:31;;;;;;;8.27;5.68;;;;;;;;;;5081353;28;20028;-64
2023/04/18 09:42:00;;;;;;;7.60;6.18;;;;;;;;;;5086700;28;20085;-63
2023/04/18 09:44:25;;;;;;;7.88;5.28;;;;;;;;;;5087725;28;20028;-64
2023/04/18 09:46:50;;;;;;;10.35;6.50;;;;;;;;;;5077077;28;20031;-63
2023/04/18 09:49:16;;;;;;;9.43;6.03;;;;;;;;;;5085124;28;20032;-63
2023/04/18 09:51:42;;;;;;;8.57;4.90;;;;;;;;;;5085480;28;20039;-63
2023/04/18 09:54:09;;;;;;;9.40;5.68;;;;;;;;;;5077827;28;20030;-64
2023/04/18 09:56:36;;;;;;;8.68;5.57;;;;;;;;;;5087117;28;20036;-64
2023/04/18 09:59:06;;;;;;;7.97;5.07;;;;;;;;;;5088641;28;20049;-65
2023/04/18 10:01:32;;;;;;;6.90;4.90;;;;;;;;;;5069409;28;20039;-64
2023/04/18 10:03:58;;;;;;;7.07;4.75;;;;;;;;;;5085317;28;20500;-64
2023/04/18 10:06:26;;;;;;;9.20;4.40;;;;;;;;;;5081483;28;20028;-64
2023/04/18 10:08:51;;;;;;;5.78;4.60;;;;;;;;;;5083962;28;20055;-64
2023/04/18 10:11:16;;;;;;;6.95;4.82;;;;;;;;;;5081843;28;20028;-64
2023/04/18 10:13:43;;;;;;;11.77;4.93;;;;;;;;;;5089697;28;20020;-64
2023/04/18 10:16:09;;;;;;;17.50;4.93;;;;;;;;;;5082080;28;20032;-64
2023/04/18 10:18:35;;;;;;;6.93;4.35;;;;;;;;;;5084513;28;20032;-64
2023/04/18 10:21:02;;;;;;;6.78;4.15;;;;;;;;;;5082274;28;20041;-64
2023/04/18 10:23:33;;;;;;;7.80;5.00;;;;;;;;;;5079861;28;20012;-64
2023/04/18 10:25:59;;;;;;;6.65;4.35;;;;;;;;;;5085258;28;20063;-64
2023/04/18 10:28:26;;;;;;;8.23;4.50;;;;;;;;;;5082251;28;20064;-64
2023/04/18 10:30:53;;;;;;;6.72;4.15;;;;;;;;;;5090004;28;20040;-63
2023/04/18 10:33:21;;;;;;;8.60;4.25;;;;;;;;;;5078610;28;20036;-64
2023/04/18 10:35:55;;;;;;;5.88;4.88;;;;;;;;;;5084779;28;20091;-64
2023/04/18 10:38:21;;;;;;;8.75;5.43;;;;;;;;;;5084060;28;20033;-64
2023/04/18 10:40:46;;;;;;;5.32;4.22;;;;;;;;;;5082060;28;20028;-64
2023/04/18 10:43:12;;;;;;;8.55;4.40;;;;;;;;;;5084272;28;20035;-64
2023/04/18 10:45:37;;;;;;;6.32;4.25;;;;;;;;;;5079293;28;20060;-64
2023/04/18 10:48:28;;;;;;;7.38;5.25;;;;;;;;;;5079240;28;20123;-64
2023/04/18 10:51:11;;;;;;;7.00;4.75;;;;;;;;;;5084989;28;20020;-64
2023/04/18 10:53:37;;;;;;;8.88;6.38;;;;;;;;;;5084065;28;20032;-64
2023/04/18 10:56:02;;;;;;;11.27;6.30;;;;;;;;;;5079416;28;20459;-64
2023/04/18 10:58:28;;;;;;;13.57;7.05;;;;;;;;;;5089642;28;20038;-63
2023/04/18 11:00:53;;;;;;;9.20;6.80;;;;;;;;;;5088033;28;20016;-64
2023/04/18 11:03:19;;;;;;;16.42;7.35;;;;;;;;;;5090507;28;20020;-64
2023/04/18 11:05:44;;;;;;;8.30;6.40;;;;;;;;;;5090628;28;20467;-64
2023/04/18 11:08:22;;;;;;;11.15;7.90;;;;;;;;;;5085077;28;20515;-64
2023/04/18 11:10:55;;;;;;;12.30;6.63;;;;;;;;;;5086934;28;20024;-65
2023/04/18 11:13:21;;;;;;;10.30;7.70;;;;;;;;;;5081222;28;20078;-64
2023/04/18 11:15:46;;;;;;;7.95;7.15;;;;;;;;;;5090847;28;20028;-64
2023/04/18 11:18:11;;;;;;;8.95;6.72;;;;;;;;;;5062754;28;20033;-64
2023/04/18 11:20:44;;;;;;;12.77;6.90;;;;;;;;;;5072467;28;20512;-63
2023/04/18 11:23:21;;;;;;;14.93;6.63;;;;;;;;;;5084100;28;20032;-66
2023/04/18 11:25:52;;;;;;;10.43;6.53;;;;;;;;;;5087671;28;20086;-64
2023/04/18 11:28:19;;;;;;;6.70;5.72;;;;;;;;;;5086246;28;20024;-63
2023/04/18 11:30:44;;;;;;;7.75;5.90;;;;;;;;;;5087841;28;20024;-64
2023/04/18 11:33:10;;;;;;;9.23;6.18;;;;;;;;;;5081913;28;20544;-64
2023/04/18 11:35:39;;;;;;;7.00;5.10;;;;;;;;;;5084061;28;20032;-64
2023/04/18 11:38:04;;;;;;;7.45;5.40;;;;;;;;;;5081578;28;20028;-64
2023/04/18 11:40:30;;;;;;;7.72;6.07;;;;;;;;;;5082131;28;20046;-64
2023/04/18 11:42:55;;;;;;;12.75;6.47;;;;;;;;;;5083157;28;20032;-64
2023/04/18 11:45:20;;;;;;;11.65;5.45;;;;;;;;;;5085714;28;20038;-64
2023/04/18 11:47:45;;;;;;;9.10;6.43;;;;;;;;;;5085239;28;20360;-64
2023/04/18 11:50:12;;;;;;;14.55;7.05;;;;;;;;;;5089425;28;20040;-64
2023/04/18 11:52:38;;;;;;;9.07;6.65;;;;;;;;;;5086039;28;20064;-64
2023/04/18 11:55:11;;;;;;;9.00;6.13;;;;;;;;;;5088339;28;20543;-65
2023/04/18 11:57:37;;;;;;;7.07;5.55;;;;;;;;;;5088587;28;20032;-64
2023/04/18 12:00:02;;;;;;;10.25;6.65;;;;;;;;;;5089055;28;20035;-64
2023/04/18 12:02:37;;;;;;;7.60;6.38;;;;;;;;;;5088768;28;20020;-64
2023/04/18 12:05:03;;;;;;;9.90;6.60;;;;;;;;;;5089668;28;20046;-64
2023/04/18 12:07:38;;;;;;;8.93;5.97;;;;;;;;;;5086753;28;20386;-63
2023/04/18 12:10:05;;;;;;;9.60;6.22;;;;;;;;;;5085782;28;20074;-63
2023/04/18 12:12:31;;;;;;;8.70;6.43;;;;;;;;;;5085783;28;20024;-64
2023/04/18 12:14:59;;;;;;;9.50;6.80;;;;;;;;;;5081193;28;20146;-64
2023/04/18 12:17:25;;;;;;;9.82;5.80;;;;;;;;;;5086529;28;20065;-64
2023/04/18 12:19:52;;;;;;;8.43;6.80;;;;;;;;;;5077389;28;20028;-65
2023/04/18 12:22:18;;;;;;;8.45;6.07;;;;;;;;;;5085630;28;20032;-64
2023/04/18 12:24:43;;;;;;;11.02;6.45;;;;;;;;;;5091563;28;20153;-64
2023/04/18 12:27:08;;;;;;;12.57;6.97;;;;;;;;;;5082887;28;20063;-64
2023/04/18 12:29:33;;;;;;;8.98;6.00;;;;;;;;;;5085615;28;20302;-65
2023/04/18 12:31:59;;;;;;;10.57;5.63;;;;;;;;;;5086043;28;20025;-64
2023/04/18 12:34:24;;;;;;;10.45;7.03;;;;;;;;;;5086819;28;20056;-65
2023/04/18 12:36:49;;;;;;;9.80;7.13;;;;;;;;;;5079105;28;20055;-65
2023/04/18 12:39:14;;;;;;;9.77;7.00;;;;;;;;;;5088313;28;20399;-64
2023/04/18 12:41:40;;;;;;;10.13;7.90;;;;;;;;;;5083471;28;20434;-64
2023/04/18 12:44:05;;;;;;;10.52;7.47;;;;;;;;;;5084533;28;20032;-64
2023/04/18 12:46:30;;;;;;;9.35;7.90;;;;;;;;;;5084193;28;20032;-64
2023/04/18 12:48:56;;;;;;;9.52;8.02;;;;;;;;;;5083295;28;20367;-64
2023/04/18 12:51:22;;;;;;;11.43;7.20;;;;;;;;;;5077384;28;20954;-64
2023/04/18 12:53:47;;;;;;;9.63;8.05;;;;;;;;;;5048227;28;20032;-64
2023/04/18 12:56:14;;;;;;;10.87;8.43;;;;;;;;;;5046058;28;20037;-65
2023/04/18 12:58:39;;;;;;;10.57;8.18;;;;;;;;;;5046814;28;20489;-64
2023/04/18 13:01:05;;;;;;;13.85;8.80;;;;;;;;;;5059399;28;20051;-64
2023/04/18 13:03:30;;;;;;;10.35;7.40;;;;;;;;;;5085744;28;20099;-64
2023/04/18 13:05:56;;;;;;;9.40;7.53;;;;;;;;;;5085333;28;20403;-63
2023/04/18 13:08:22;;;;;;;10.85;8.20;;;;;;;;;;5088854;28;20063;-64
2023/04/18 13:10:47;;;;;;;11.73;8.80;;;;;;;;;;5083098;28;20032;-65
2023/04/18 13:13:12;;;;;;;12.98;7.97;;;;;;;;;;5082104;28;20024;-64
2023/04/18 13:15:37;;;;;;;10.57;7.63;;;;;;;;;;5084871;28;20044;-64
2023/04/18 13:18:03;;;;;;;10.25;7.70;;;;;;;;;;5056689;28;20016;-64
2023/04/18 13:20:28;;;;;;;9.07;7.35;;;;;;;;;;5078119;28;20435;-65
2023/04/18 13:22:54;;;;;;;12.52;8.93;;;;;;;;;;5053997;28;20103;-64
2023/04/18 13:25:19;;;;;;;10.45;8.32;;;;;;;;;;5088416;28;20032;-63
2023/04/18 13:27:45;;;;;;;14.52;8.07;;;;;;;;;;5090225;28;20016;-64
2023/04/18 13:30:10;;;;;;;11.88;8.50;;;;;;;;;;5086940;28;20032;-63
2023/04/18 13:32:36;;;;;;;10.63;8.15;;;;;;;;;;5088200;28;20505;-64
2023/04/18 13:35:02;;;;;;;8.48;7.30;;;;;;;;;;5088811;28;20528;-66
2023/04/18 13:37:27;;;;;;;13.02;9.13;;;;;;;;;;5087764;28;20024;-62
2023/04/18 13:39:53;;;;;;;10.90;8.93;;;;;;;;;;5085572;28;20027;-64
2023/04/18 13:42:18;;;;;;;9.50;7.68;;;;;;;;;;5082680;28;20073;-63
2023/04/18 13:44:43;;;;;;;10.27;7.70;;;;;;;;;;5085243;28;20355;-64
2023/04/18 13:47:09;;;;;;;13.05;8.35;;;;;;;;;;5087337;28;20069;-63
2023/04/18 13:49:35;;;;;;;11.17;8.13;;;;;;;;;;5059371;28;20182;-64
2023/04/18 13:52:00;;;;;;;13.77;7.90;;;;;;;;;;5082535;28;20274;-64
2023/04/18 13:54:26;;;;;;;15.27;8.65;;;;;;;;;;5081227;28;20451;-63
2023/04/18 13:57:01;;;;;;;10.73;7.85;;;;;;;;;;5083711;28;20035;-63
2023/04/18 13:59:26;;;;;;;;;;;;;;;;;;5084030;28;20391;-63
2023/04/18 14:01:52;;;;;;;10.70;8.60;;;;;;;;;;5077908;28;19920;-64
2023/04/18 14:04:19;;;;;;;13.95;8.27;;;;;;;;;;5080936;28;20028;-64
2023/04/18 14:06:44;;;;;;;10.27;8.77;;;;;;;;;;5077508;28;20028;-64
2023/04/18 14:09:09;;;;;;;10.57;8.60;;;;;;;;;;5080380;28;20042;-65
2023/04/18 14:11:34;;;;;;;13.60;9.47;;;;;;;;;;5081312;28;20274;-64
2023/04/18 14:14:00;;;;;;;12.93;9.63;;;;;;;;;;5079121;28;20347;-64
2023/04/18 14:16:27;;;;;;;11.32;9.25;;;;;;;;;;5086234;28;20043;-64
2023/04/18 14:18:52;;;;;;;11.77;8.13;;;;;;;;;;5079770;28;20060;-65
2023/04/18 14:21:18;;;;;;;11.88;8.65;;;;;;;;;;5082268;28;20488;-62
2023/04/18 14:23:43;;;;;;;14.20;9.10;;;;;;;;;;5084182;28;20113;-64